createdAt,value
2019-03-23T00:02:25.953Z,30.57
2019-03-23T00:04:57.143Z,30.30
2019-03-23T00:07:28.359Z,31.40
2019-03-23T00:09:59.555Z,32.80
2019-03-23T00:12:30.720Z,32.33
2019-03-23T00:15:01.992Z,30.10
2019-03-23T00:17:33.212Z,33.53
2019-03-23T00:20:04.626Z,28.13
2019-03-23T00:22:35.801Z,30.17
2019-03-23T00:25:07.481Z,34.10
2019-03-23T00:27:38.577Z,32.90
2019-03-23T00:30:10.381Z,25.10
2019-03-23T00:32:41.687Z,30.97
2019-03-23T00:35:12.928Z,30.83
2019-03-23T00:37:44.082Z,29.70
2019-03-23T00:40:15.458Z,32.67
2019-03-23T00:42:46.537Z,31.27
2019-03-23T00:45:17.726Z,28.67
2019-03-23T00:47:48.895Z,27.03
2019-03-23T00:50:20.141Z,23.60
2019-03-23T00:52:51.295Z,26.83
2019-03-23T00:55:22.481Z,31.97
2019-03-23T00:57:53.653Z,29.43
2019-03-23T01:00:24.765Z,26.30
2019-03-23T01:02:55.929Z,29.33
2019-03-23T01:05:27.177Z,32.73
2019-03-23T01:07:58.337Z,32.93
2019-03-23T01:10:29.582Z,29.50
2019-03-23T01:13:00.810Z,27.77
2019-03-23T01:15:32.066Z,28.50
2019-03-23T01:18:03.296Z,28.27
2019-03-23T01:20:34.470Z,28.83
2019-03-23T01:23:05.631Z,33.17
2019-03-23T01:25:36.792Z,30.57
2019-03-23T01:28:07.953Z,30.97
2019-03-23T01:30:39.227Z,33.00
2019-03-23T01:33:10.466Z,39.10
2019-03-23T01:35:41.713Z,29.90
2019-03-23T01:38:12.870Z,31.53
2019-03-23T01:40:44.101Z,35.60
2019-03-23T01:43:15.338Z,31.83
2019-03-23T01:45:46.509Z,32.67
2019-03-23T01:48:17.673Z,30.87
2019-03-23T01:50:48.769Z,31.37
2019-03-23T01:53:19.849Z,25.90
2019-03-23T01:55:51.329Z,36.20
2019-03-23T01:58:22.556Z,33.20
2019-03-23T02:00:53.675Z,29.97
2019-03-23T02:03:24.915Z,32.13
2019-03-23T02:05:56.094Z,31.53
2019-03-23T02:08:27.281Z,27.70
2019-03-23T02:10:58.536Z,32.13
2019-03-23T02:13:29.761Z,35.23
2019-03-23T02:16:01.042Z,30.77
2019-03-23T02:18:32.288Z,28.37
2019-03-23T02:21:03.889Z,30.33
2019-03-23T02:23:35.053Z,32.47
2019-03-23T02:26:06.229Z,28.50
2019-03-23T02:28:37.466Z,27.50
2019-03-23T02:31:08.602Z,29.90
2019-03-23T02:33:39.828Z,29.60
2019-03-23T02:36:10.937Z,30.30
2019-03-23T02:38:42.114Z,27.60
2019-03-23T02:41:13.295Z,34.77
2019-03-23T02:43:44.444Z,29.23
2019-03-23T02:46:15.550Z,30.50
2019-03-23T02:48:46.863Z,33.40
2019-03-23T02:51:18.043Z,29.50
2019-03-23T02:53:49.222Z,29.87
2019-03-23T02:56:20.471Z,33.90
2019-03-23T02:58:51.665Z,31.00
2019-03-23T03:01:22.892Z,30.77
2019-03-23T03:03:54.058Z,32.87
2019-03-23T03:06:25.290Z,30.53
2019-03-23T03:08:56.462Z,29.97
2019-03-23T03:11:27.615Z,30.17
2019-03-23T03:13:58.791Z,28.33
2019-03-23T03:16:30.001Z,31.43
2019-03-23T03:19:01.174Z,31.60
2019-03-23T03:21:32.393Z,32.27
2019-03-23T03:24:03.534Z,33.53
2019-03-23T03:26:34.726Z,32.70
2019-03-23T03:29:05.930Z,32.60
2019-03-23T03:31:37.198Z,32.93
2019-03-23T03:34:08.391Z,34.07
2019-03-23T03:36:39.623Z,34.70
2019-03-23T03:39:10.716Z,29.87
2019-03-23T03:41:41.901Z,31.97
2019-03-23T03:44:13.046Z,29.60
2019-03-23T03:46:44.232Z,33.20
2019-03-23T06:24:13.290Z,36.17
2019-03-23T06:26:44.457Z,36.23
2019-03-23T06:29:15.641Z,33.20
2019-03-23T06:31:46.884Z,40.37
2019-03-23T06:34:18.061Z,31.53
2019-03-23T06:36:49.225Z,28.20
2019-03-23T06:39:20.412Z,29.60
2019-03-23T06:41:51.502Z,29.23
2019-03-23T06:44:22.700Z,28.37
2019-03-23T06:46:53.858Z,26.80
2019-03-23T06:49:25.054Z,30.00
2019-03-23T06:51:56.224Z,35.60
2019-03-23T06:54:27.403Z,26.20
2019-03-23T06:56:58.570Z,34.40
2019-03-23T06:59:29.776Z,24.20
2019-03-23T07:02:01.073Z,32.63
2019-03-23T07:04:32.267Z,27.20
2019-03-23T07:07:03.438Z,27.90
2019-03-23T07:09:34.617Z,32.33
2019-03-23T07:12:05.841Z,31.00
2019-03-23T07:14:37.133Z,30.20
2019-03-23T07:17:08.364Z,33.83
2019-03-23T07:19:39.934Z,29.43
2019-03-23T07:22:11.232Z,28.97
2019-03-23T07:24:43.589Z,32.17
2019-03-23T07:27:14.931Z,35.47
2019-03-23T07:29:46.308Z,31.63
2019-03-23T07:32:17.556Z,31.13
2019-03-23T07:34:48.818Z,29.37
2019-03-23T07:37:20.013Z,28.33
2019-03-23T07:39:51.234Z,32.23
2019-03-23T07:42:22.491Z,31.73
2019-03-23T07:44:53.734Z,35.23
2019-03-23T07:47:24.962Z,30.57
2019-03-23T07:49:56.224Z,30.40
2019-03-23T07:52:27.459Z,35.33
2019-03-23T07:55:02.539Z,36.17
2019-03-23T07:57:33.785Z,29.87
2019-03-23T08:00:05.805Z,30.93
2019-03-23T08:02:48.635Z,29.50
2019-03-23T08:05:20.038Z,30.10
2019-03-23T08:07:51.269Z,30.60
2019-03-23T08:10:30.583Z,34.13
2019-03-23T08:13:01.809Z,33.87
2019-03-23T08:15:33.013Z,28.47
2019-03-23T08:18:04.280Z,31.30
2019-03-23T08:20:35.558Z,28.77
2019-03-23T08:23:06.757Z,31.70
2019-03-23T08:25:38.052Z,28.77
2019-03-23T08:28:09.317Z,28.00
2019-03-23T08:30:40.529Z,27.40
2019-03-23T08:33:11.783Z,42.27
2019-03-23T08:35:43.067Z,52.80
2019-03-23T08:38:16.229Z,60.53
2019-03-23T08:40:47.629Z,36.60
2019-03-23T08:43:18.817Z,37.37
2019-03-23T08:45:50.055Z,44.17
2019-03-23T08:48:21.293Z,59.97
2019-03-23T08:50:52.487Z,36.50
2019-03-23T08:53:24.818Z,33.17
2019-03-23T08:55:56.065Z,27.33
2019-03-23T08:58:29.443Z,48.67
2019-03-23T09:01:01.105Z,53.33
2019-03-23T09:03:33.518Z,32.67
2019-03-23T09:06:04.718Z,31.53
2019-03-23T09:08:36.043Z,29.53
2019-03-23T09:11:07.241Z,30.97
2019-03-23T09:13:40.802Z,26.07
2019-03-23T09:16:11.222Z,41.37
2019-03-23T09:18:42.459Z,38.33
2019-03-23T09:21:13.721Z,36.17
2019-03-23T09:23:44.952Z,34.70
2019-03-23T09:26:16.226Z,34.93
2019-03-23T09:28:47.469Z,34.80
2019-03-23T09:31:18.668Z,34.97
2019-03-23T09:33:50.423Z,34.27
2019-03-23T09:36:22.923Z,36.60
2019-03-23T09:38:55.437Z,36.03
2019-03-23T09:41:27.238Z,38.93
2019-03-23T09:43:58.484Z,38.47
2019-03-23T09:46:29.689Z,36.73
2019-03-23T09:49:00.945Z,38.23
2019-03-23T09:51:32.132Z,45.90
2019-03-23T09:54:03.284Z,36.10
2019-03-23T09:56:34.597Z,36.87
2019-03-23T09:59:06.758Z,38.90
2019-03-23T10:01:37.962Z,40.93
2019-03-23T10:04:09.135Z,38.60
2019-03-23T10:06:40.396Z,38.93
2019-03-23T10:09:11.546Z,44.80
2019-03-23T10:11:42.801Z,37.93
2019-03-23T10:14:13.949Z,40.67
2019-03-23T10:16:45.142Z,37.47
2019-03-23T10:19:16.487Z,38.47
2019-03-23T10:21:47.735Z,36.60
2019-03-23T10:24:18.987Z,43.83
2019-03-23T10:26:52.147Z,37.30
2019-03-23T10:29:23.134Z,42.60
2019-03-23T10:31:55.794Z,37.53
2019-03-23T10:34:27.103Z,39.20
2019-03-23T10:36:58.313Z,40.80
2019-03-23T10:39:29.486Z,41.23
2019-03-23T10:42:12.461Z,40.07
2019-03-23T10:44:43.617Z,39.83
2019-03-23T10:47:14.882Z,42.20
2019-03-23T10:49:46.121Z,41.00
2019-03-23T10:52:17.382Z,39.67
2019-03-23T10:54:48.613Z,38.20
2019-03-23T10:57:19.888Z,41.57
2019-03-23T10:59:50.997Z,39.03
2019-03-23T11:02:22.256Z,34.80
2019-03-23T11:04:53.589Z,39.70
2019-03-23T11:07:24.844Z,35.40
2019-03-23T11:09:56.084Z,41.90
2019-03-23T11:12:27.354Z,70.00
2019-03-23T11:14:58.522Z,40.83
2019-03-23T11:17:29.824Z,40.83
2019-03-23T11:20:01.082Z,38.57
2019-03-23T11:22:32.414Z,41.67
2019-03-23T11:25:03.778Z,38.07
2019-03-23T11:27:35.004Z,38.73
2019-03-23T11:30:06.846Z,38.30
2019-03-23T11:32:38.107Z,38.33
2019-03-23T11:35:10.723Z,40.70
2019-03-23T11:37:42.225Z,41.30
2019-03-23T11:40:14.766Z,40.87
2019-03-23T11:42:50.113Z,42.07
2019-03-23T11:45:18.863Z,40.37
2019-03-23T11:47:50.117Z,41.83
2019-03-23T11:50:21.398Z,41.13
2019-03-23T11:52:52.672Z,40.63
2019-03-23T11:55:23.925Z,41.20
2019-03-23T11:57:55.221Z,39.27
2019-03-23T12:00:26.434Z,42.77
2019-03-23T12:02:57.699Z,45.17
2019-03-23T12:05:28.928Z,42.10
2019-03-23T12:08:00.117Z,42.03
2019-03-23T12:10:31.361Z,44.00
2019-03-23T12:13:02.614Z,39.00
2019-03-23T12:15:33.885Z,40.30
2019-03-23T12:18:05.142Z,36.17
2019-03-23T12:20:36.413Z,40.40
2019-03-23T12:23:07.602Z,40.60
2019-03-23T12:25:38.774Z,42.10
2019-03-23T12:28:10.021Z,37.10
2019-03-23T12:30:41.186Z,41.23
2019-03-23T12:33:12.661Z,40.90
2019-03-23T12:35:43.896Z,38.87
2019-03-23T12:38:22.899Z,38.73
2019-03-23T12:40:54.144Z,41.30
2019-03-23T12:43:25.330Z,39.90
2019-03-23T12:45:56.568Z,36.97
2019-03-23T12:48:27.834Z,41.73
2019-03-23T12:50:59.076Z,42.57
2019-03-23T12:53:30.265Z,44.63
2019-03-23T12:56:01.514Z,39.40
2019-03-23T12:58:32.778Z,42.27
2019-03-23T13:01:04.023Z,40.10
2019-03-23T13:03:35.224Z,40.07
2019-03-23T13:06:06.397Z,43.80
2019-03-23T13:08:37.517Z,40.93
2019-03-23T13:11:08.754Z,41.37
2019-03-23T13:13:40.093Z,39.97
2019-03-23T13:16:11.271Z,40.60
2019-03-23T13:18:42.449Z,40.27
2019-03-23T13:21:13.617Z,41.17
2019-03-23T13:23:44.881Z,39.37
2019-03-23T13:26:16.033Z,42.60
2019-03-23T13:28:47.232Z,38.70
2019-03-23T13:31:19.527Z,39.83
2019-03-23T13:33:51.662Z,35.23
2019-03-23T13:36:22.812Z,39.83
2019-03-23T13:38:54.002Z,42.53
2019-03-23T13:41:25.237Z,41.23
2019-03-23T13:43:56.500Z,42.67
2019-03-23T13:46:27.684Z,45.00
2019-03-23T13:48:58.976Z,41.87
2019-03-23T13:51:30.131Z,41.20
2019-03-23T13:54:01.430Z,43.80
2019-03-23T13:56:32.673Z,39.13
2019-03-23T13:59:03.846Z,37.10
2019-03-23T14:01:35.083Z,38.50
2019-03-23T14:04:06.342Z,39.50
2019-03-23T14:06:37.582Z,40.20
2019-03-23T14:09:08.767Z,39.80
2019-03-23T14:11:40.009Z,41.73
2019-03-23T14:14:11.289Z,48.90
2019-03-23T14:16:42.605Z,39.47
2019-03-23T14:19:13.866Z,45.13
2019-03-23T14:21:45.017Z,40.70
2019-03-23T14:24:16.201Z,43.43
2019-03-23T14:26:47.432Z,50.10
2019-03-23T14:29:18.688Z,46.43
2019-03-23T14:31:49.912Z,48.40
2019-03-23T14:34:21.185Z,41.80
2019-03-23T14:36:52.397Z,43.23
2019-03-23T14:39:23.493Z,42.40
2019-03-23T14:42:04.393Z,40.63
2019-03-23T14:44:27.387Z,44.10
2019-03-23T14:46:58.618Z,41.27
2019-03-23T14:49:29.827Z,41.50
2019-03-23T14:52:00.963Z,45.70
2019-03-23T14:54:32.222Z,42.30
2019-03-23T14:57:03.373Z,48.80
2019-03-23T14:59:34.630Z,44.23
2019-03-23T15:02:05.790Z,46.87
2019-03-23T15:04:37.037Z,44.00
2019-03-23T15:07:08.215Z,43.60
2019-03-23T15:09:39.484Z,39.73
2019-03-23T15:12:14.888Z,40.20
2019-03-23T15:14:43.541Z,40.17
2019-03-23T15:17:14.786Z,43.07
2019-03-23T15:19:45.996Z,41.57
2019-03-23T15:22:17.149Z,38.10
2019-03-23T15:24:48.384Z,45.83
2019-03-23T15:27:19.534Z,42.80
2019-03-23T15:29:50.802Z,41.93
2019-03-23T15:32:22.027Z,41.07
2019-03-23T15:34:53.277Z,43.60
2019-03-23T15:37:24.506Z,40.17
2019-03-23T15:39:55.808Z,38.70
2019-03-23T15:42:26.958Z,43.27
2019-03-23T15:44:58.149Z,44.17
2019-03-23T15:47:29.319Z,44.17
2019-03-23T15:50:00.562Z,44.20
2019-03-23T15:52:31.720Z,42.80
2019-03-23T15:55:03.409Z,42.07
2019-03-23T15:57:34.661Z,44.73
2019-03-23T16:00:07.102Z,37.90
2019-03-23T16:02:38.325Z,40.70
2019-03-23T16:05:10.256Z,43.63
2019-03-23T16:07:41.430Z,39.30
2019-03-23T16:10:12.786Z,39.37
2019-03-23T16:12:44.013Z,42.00
2019-03-23T16:15:15.267Z,40.87
2019-03-23T16:17:47.325Z,37.53
2019-03-23T16:20:18.511Z,45.73
2019-03-23T16:22:49.735Z,42.10
2019-03-23T16:25:21.008Z,45.97
2019-03-23T16:27:52.179Z,40.97
2019-03-23T16:30:30.649Z,41.03
2019-03-23T16:33:01.970Z,43.10
2019-03-23T16:35:33.213Z,44.40
2019-03-23T16:38:04.442Z,44.27
2019-03-23T16:40:35.707Z,44.17
2019-03-23T16:43:06.870Z,45.30
2019-03-23T16:45:38.117Z,43.00
2019-03-23T16:48:09.287Z,41.57
2019-03-23T16:50:40.533Z,41.47
2019-03-23T16:53:11.621Z,47.00
2019-03-23T16:55:42.820Z,46.90
2019-03-23T16:58:16.397Z,44.30
2019-03-23T17:00:46.968Z,41.83
2019-03-23T17:03:18.266Z,42.27
2019-03-23T17:05:49.524Z,43.67
2019-03-23T17:08:20.684Z,44.20
2019-03-23T17:10:52.031Z,44.50
2019-03-23T17:13:23.181Z,38.77
2019-03-23T17:15:54.455Z,47.97
2019-03-23T17:18:25.686Z,40.07
2019-03-23T17:20:56.864Z,43.00
2019-03-23T17:23:28.025Z,43.93
2019-03-23T17:25:59.275Z,43.77
2019-03-23T17:28:30.513Z,43.80
2019-03-23T17:31:01.685Z,46.23
2019-03-23T17:33:32.833Z,47.83
2019-03-23T17:36:04.093Z,43.93
2019-03-23T17:38:36.209Z,51.00
2019-03-23T17:41:07.380Z,48.43
2019-03-23T17:43:40.719Z,46.20
2019-03-23T17:46:11.262Z,47.60
2019-03-23T17:48:42.444Z,46.50
2019-03-23T17:51:13.705Z,44.03
2019-03-23T17:53:44.858Z,41.83
2019-03-23T17:56:16.034Z,47.40
2019-03-23T17:58:47.221Z,50.83
2019-03-23T18:01:19.670Z,52.43
2019-03-23T18:03:50.927Z,48.50
2019-03-23T18:06:22.113Z,46.37
2019-03-23T18:08:53.278Z,47.73
2019-03-23T18:11:25.514Z,54.17
2019-03-23T18:13:56.761Z,54.57
2019-03-23T18:16:27.959Z,57.20
2019-03-23T18:18:59.117Z,52.17
2019-03-23T18:21:30.372Z,46.33
2019-03-23T18:24:01.599Z,41.30
2019-03-23T18:26:32.853Z,51.40
2019-03-23T18:29:04.025Z,50.30
2019-03-23T18:31:35.200Z,47.27
2019-03-23T18:34:06.361Z,44.00
2019-03-23T18:36:37.612Z,42.10
2019-03-23T18:39:08.785Z,35.40
2019-03-23T18:41:39.981Z,39.57
2019-03-23T18:44:16.047Z,47.37
2019-03-23T18:46:43.844Z,45.53
2019-03-23T18:49:14.929Z,45.33
2019-03-23T18:51:46.186Z,39.63
2019-03-23T18:54:17.849Z,45.17
2019-03-23T18:56:49.038Z,38.20
2019-03-23T18:59:20.269Z,40.07
2019-03-23T19:01:51.472Z,38.93
2019-03-23T19:04:22.687Z,42.53
2019-03-23T19:06:53.808Z,36.87
2019-03-23T19:09:25.044Z,37.27
2019-03-23T19:11:56.258Z,37.60
2019-03-23T19:14:28.380Z,36.37
2019-03-23T19:16:59.513Z,39.27
2019-03-23T19:19:30.596Z,41.77
2019-03-23T19:22:01.776Z,43.90
2019-03-23T19:24:32.914Z,36.10
2019-03-23T19:27:04.174Z,48.17
2019-03-23T19:29:35.390Z,48.10
2019-03-23T19:32:06.481Z,38.63
2019-03-23T19:34:37.651Z,32.50
2019-03-23T19:37:08.825Z,36.23
2019-03-23T19:39:39.984Z,41.77
2019-03-23T19:42:11.161Z,38.53
2019-03-23T19:44:42.317Z,33.70
2019-03-23T19:47:13.573Z,41.93
2019-03-23T19:49:44.669Z,39.33
2019-03-23T19:52:15.857Z,39.20
2019-03-23T19:54:47.006Z,39.00
2019-03-23T19:57:18.261Z,41.03
2019-03-23T19:59:49.494Z,42.97
2019-03-23T20:02:20.739Z,44.03
2019-03-23T20:04:51.878Z,46.80
2019-03-23T20:07:32.804Z,45.37
2019-03-23T20:09:55.941Z,37.73
2019-03-23T20:12:27.129Z,38.23
2019-03-23T20:14:58.278Z,40.10
2019-03-23T20:17:29.470Z,32.70
2019-03-23T20:20:00.632Z,31.90
2019-03-23T20:22:31.857Z,31.07
2019-03-23T20:25:03.018Z,32.37
2019-03-23T20:27:34.262Z,41.30
2019-03-23T20:30:09.322Z,42.07
2019-03-23T20:32:40.490Z,50.87
2019-03-23T20:35:11.826Z,41.63
2019-03-23T20:37:43.010Z,45.40
2019-03-23T20:40:14.180Z,42.93
2019-03-23T20:42:46.199Z,46.90
2019-03-23T20:45:29.849Z,42.67
2019-03-23T20:48:01.233Z,45.53
2019-03-23T20:50:33.583Z,43.47
2019-03-23T20:53:04.765Z,47.37
2019-03-23T20:55:35.930Z,40.30
2019-03-23T20:58:07.362Z,41.47
2019-03-23T21:00:38.684Z,38.53
2019-03-23T21:03:09.930Z,37.43
2019-03-23T21:05:41.137Z,40.60
2019-03-23T21:08:12.308Z,38.77
2019-03-23T21:10:43.509Z,40.70
2019-03-23T21:13:14.695Z,42.33
2019-03-23T21:15:46.094Z,39.37
2019-03-23T21:18:17.262Z,43.40
2019-03-23T21:20:48.422Z,37.50
2019-03-23T21:23:19.598Z,40.50
2019-03-23T21:25:50.741Z,38.10
2019-03-23T21:28:21.830Z,40.63
2019-03-23T21:30:53.052Z,43.00
2019-03-23T21:33:24.222Z,44.30
2019-03-23T21:35:55.374Z,42.80
2019-03-23T21:38:26.541Z,40.07
2019-03-23T21:40:57.769Z,48.20
2019-03-23T21:43:28.890Z,42.20
2019-03-23T21:46:00.105Z,40.80
2019-03-23T21:48:31.212Z,52.63
2019-03-23T21:51:02.290Z,44.63
2019-03-23T21:53:33.457Z,45.00
2019-03-23T21:56:04.654Z,46.60
2019-03-23T21:58:35.825Z,44.33
2019-03-23T22:01:06.968Z,46.00
2019-03-23T22:03:39.269Z,44.87
2019-03-23T22:06:10.412Z,40.07
2019-03-23T22:08:41.601Z,42.77
2019-03-23T22:11:12.667Z,45.80
2019-03-23T22:13:44.808Z,44.27
2019-03-23T22:16:15.982Z,43.13
2019-03-23T22:18:47.142Z,40.33
2019-03-23T22:21:18.210Z,47.73
2019-03-23T22:23:49.403Z,39.40
2019-03-23T22:26:20.621Z,39.63
2019-03-23T22:28:51.862Z,40.50
2019-03-23T22:31:22.946Z,45.57
2019-03-23T22:33:54.210Z,44.70
2019-03-23T22:36:25.364Z,48.43
2019-03-23T22:38:56.565Z,40.53
2019-03-23T22:41:27.789Z,47.53
2019-03-23T22:43:58.972Z,43.33
2019-03-23T22:46:30.211Z,41.73
2019-03-23T22:49:01.444Z,47.57
2019-03-23T22:57:06.401Z,46.00
2019-03-23T22:59:37.569Z,42.90
2019-03-23T23:02:08.751Z,42.73
2019-03-23T23:04:39.926Z,40.97
2019-03-23T23:07:11.077Z,43.20
2019-03-23T23:09:42.254Z,52.70
2019-03-23T23:12:13.409Z,41.87
2019-03-23T23:14:46.365Z,53.57
2019-03-23T23:17:17.565Z,48.43
2019-03-23T23:19:48.732Z,49.17
2019-03-23T23:22:19.815Z,47.70
2019-03-23T23:24:50.981Z,47.77
2019-03-23T23:27:22.136Z,50.60
2019-03-23T23:29:54.468Z,50.40
2019-03-23T23:32:25.682Z,52.17
2019-03-23T23:34:56.943Z,57.30
2019-03-23T23:37:28.105Z,50.60
2019-03-23T23:40:00.317Z,54.73
2019-03-23T23:42:31.434Z,55.70
2019-03-23T23:45:02.686Z,47.60
2019-03-23T23:47:33.829Z,49.20
2019-03-23T23:50:05.537Z,49.80
2019-03-23T23:52:36.623Z,50.83
2019-03-23T23:55:08.012Z,53.60
2019-03-23T23:57:39.228Z,49.80
